Latest Weather Observations for Thredbo Top Station

IDN60901

Issued at 6:11 am EST Thursday 19 September 2019 (issued every 10 minutes, with the page automatically refreshed every 10 minutes)

About weather observations | Map of Canberra area stations | Latest observations for Canberra area | Other Formats
Station Details ID: 071032 Name: THREDBO AWS Lat: -36.49 Lon: 148.29 Height: 1957.0 m
Data from the previous 72 hours. | See also: Recent months at Thredbo Top Station
Date/Time
EST
Temp
°C
App
Temp
°C
Dew
Point
°C
Rel
Hum
%
Delta-T
°C
Wind Press
QNH
hPa
Press
MSL
hPa
Rain since
9am
mm
Dir  Spd
km/h
Gust
km/h
Spd
kts
Gust
kts
19/06:00am 2.9 -3.6 2.5 97 0.2 N 26 32 14 17 1027.6 1029.1 0.0
19/05:30am 2.4 -4.6 2.0 97 0.2 N 28 32 15 17 1027.3 1028.7 0.0
19/05:00am 2.4 -5.0 2.0 97 0.2 N 30 35 16 19 1027.0 1028.5 0.0
19/04:30am 2.9 -4.4 2.5 97 0.2 N 30 33 16 18 1026.7 1028.1 0.0
19/04:00am 2.8 -4.9 2.4 97 0.2 N 32 37 17 20 1026.7 1028.1 0.0
19/03:30am 2.8 -5.1 2.4 97 0.2 N 33 37 18 20 1026.5 1027.9 0.0
19/03:00am 2.7 -4.6 2.3 97 0.2 N 30 35 16 19 1026.8 1028.2 0.0
19/02:30am 2.9 -5.3 2.5 97 0.2 N 35 41 19 22 1026.7 1028.1 0.0
19/02:00am 2.3 -6.0 1.9 97 0.2 NNW 35 41 19 22 1027.0 1028.5 0.0
19/01:30am 2.9 -5.7 2.5 97 0.2 NNW 37 41 20 22 1027.0 1028.5 0.0
19/01:00am 2.7 -6.7 2.3 97 0.2 NNW 41 46 22 25 1027.1 1028.6 0.0
19/12:30am 3.2 -5.7 2.8 97 0.2 N 39 46 21 25 1027.1 1028.6 0.0
19/12:00am 2.6 -7.2 2.2 97 0.2 N 43 50 23 27 1027.3 1028.7 0.0
 
Date/Time
EST
Temp
°C
App
Temp
°C
Dew
Point
°C
Rel
Hum
%
Delta-T
°C
Wind Press
QNH
hPa
Press
MSL
hPa
Rain since
9am
mm
Dir  Spd
km/h
Gust
km/h
Spd
kts
Gust
kts
18/11:30pm 2.3 -6.8 1.9 97 0.2 N 39 46 21 25 1027.3 1028.7 0.0
18/11:00pm 1.8 -6.6 1.4 97 0.2 N 35 43 19 23 1027.5 1029.0 0.0
18/10:30pm 2.6 -7.5 1.3 91 0.6 NNW 44 52 24 28 1027.3 1028.7 0.0
18/10:00pm 1.8 -6.7 1.2 96 0.3 N 35 44 19 24 1027.5 1029.0 0.0
18/09:30pm 2.0 -4.4 0.8 92 0.5 N 24 32 13 17 1028.2 1029.7 0.0
18/09:00pm 1.5 -5.4 0.2 91 0.5 NNW 26 32 14 17 1028.1 1029.6 0.0
18/08:30pm 1.3 -5.7 -0.3 89 0.7 NNW 26 28 14 15 1028.1 1029.6 0.0
18/08:00pm 2.2 -4.3 0.1 86 0.9 NNW 24 26 13 14 1028.2 1029.7 0.0
18/07:30pm 1.4 -4.3 -0.7 86 0.9 NNW 19 20 10 11 1028.2 1029.7 0.0
18/07:00pm 1.7 -3.6 -0.5 85 0.9 NNW 17 19 9 10 1028.1 1029.6 0.0
18/06:30pm 2.3 -3.5 -0.4 82 1.1 NNW 20 22 11 12 1027.9 1029.3 0.0
18/06:00pm 2.7 -2.5 -0.2 81 1.2 NW 17 20 9 11 1027.7 1029.2 0.0
18/05:30pm 2.3 -3.0 -0.3 83 1.1 WNW 17 19 9 10 1027.9 1029.3 0.0
18/05:00pm 3.5 -1.0 0.0 78 1.5 W 13 15 7 8 1027.7 1029.2 0.0
18/04:30pm 4.3 0.2 -0.5 71 2.0 W 11 13 6 7 1027.7 1029.2 0.0
18/04:00pm 4.8 1.4 -0.4 69 2.2 W 7 11 4 6 1027.6 1029.1 0.0
18/03:30pm 4.8 0.9 -1.2 65 2.5 W 9 11 5 6 1027.5 1029.0 0.0
18/03:00pm 4.5 0.8 -0.1 72 2.0 WNW 9 11 5 6 1027.4 1028.8 0.0
18/02:30pm 4.4 1.0 -0.4 71 2.1 WNW 7 9 4 5 1027.4 1028.8 0.0
18/02:00pm 4.7 1.2 -1.1 66 2.4 W 7 11 4 6 1027.4 1028.8 0.0
18/01:30pm 3.9 0.5 -0.3 74 1.8 WNW 7 9 4 5 1027.5 1029.0 0.0
18/01:00pm 3.6 -0.2 -0.4 75 1.7 W 9 13 5 7 1027.5 1029.0 0.0
18/12:30pm 3.4 -0.1 -1.0 73 1.8 WNW 7 11 4 6 1027.6 1029.1 0.0
18/12:00pm 3.3 0.4 -1.3 72 1.9 W 4 11 2 6 1027.7 1029.2 0.0
18/11:30am 3.4 1.4 0.1 79 1.4 CALM 0 2 0 1 1027.9 1029.3 0.0
18/11:00am 1.9 -0.5 -0.3 85 0.9 NNW 2 4 1 2 1028.1 1029.6 0.0
18/10:30am 2.3 0.5 1.1 92 0.5 CALM 0 2 0 1 1028.0 1029.5 0.0
18/10:00am 1.2 -1.6 -0.4 89 0.7 ESE 4 6 2 3 1028.0 1029.5 0.0
18/09:30am -0.6 -6.5 -2.5 87 0.7 NNW 19 20 10 11 1027.9 1029.3 0.0
18/09:00am -1.6 -5.1 -2.9 91 0.4 N 6 9 3 5 1028.1 1029.6 0.2
18/08:30am -2.4 -6.2 -3.4 93 0.3 N 7 11 4 6 1028.1 1029.6 0.2
18/08:00am -2.4 -6.5 -3.4 93 0.3 N 9 11 5 6 1028.0 1029.5 0.2
18/07:30am -4.0 -7.3 -4.8 94 0.1 N 4 6 2 3 1027.7 1029.2 0.2
18/07:00am -4.5 -8.8 -5.2 95 0.0 NW 9 11 5 6 1027.5 1029.0 0.2
18/06:30am -4.6 -7.2 -5.1 96 0.0 CALM 0 0 0 0 1027.3 1028.7 0.2
18/06:00am -4.9 -7.6 -5.7 94 0.1 CALM 0 0 0 0 1027.0 1028.5 0.2
18/05:30am -3.6 -6.1 -4.3 95 0.1 CALM 0 0 0 0 1026.9 1028.3 0.2
18/05:00am -3.1 -7.0 -4.2 92 0.2 SSW 7 11 4 6 1026.7 1028.1 0.2
18/04:30am -3.0 -7.2 -3.8 94 0.1 SSW 9 13 5 7 1026.5 1027.9 0.2
18/04:00am -3.3 -7.5 -3.8 96 0.0 SW 9 11 5 6 1026.5 1027.9 0.2
18/03:30am -2.6 -7.5 -3.1 96 0.1 SW 13 17 7 9 1026.4 1027.8 0.2
18/03:00am -3.0 -7.5 -3.4 97 0.0 SW 11 13 6 7 1026.5 1027.9 0.2
18/02:30am -3.1 -7.6 -3.5 97 0.0 SW 11 13 6 7 1026.7 1028.1 0.2
18/02:00am -3.1 -8.0 -3.5 97 0.0 SW 13 13 7 7 1026.8 1028.2 0.2
18/01:30am -3.8 -8.8 -4.2 97 0.0 SW 13 15 7 8 1026.9 1028.3 0.2
18/01:00am -4.5 -8.2 -4.9 97 -0.1 SW 6 11 3 6 1026.9 1028.3 0.2
18/12:30am -4.8 -8.8 -5.2 97 -0.1 NNW 7 15 4 8 1026.8 1028.2 0.0
18/12:00am -5.3 -11.2 -5.7 97 -0.1 NNW 17 19 9 10 1026.7 1028.1 0.0
 
Date/Time
EST
Temp
°C
App
Temp
°C
Dew
Point
°C
Rel
Hum
%
Delta-T
°C
Wind Press
QNH
hPa
Press
MSL
hPa
Rain since
9am
mm
Dir  Spd
km/h
Gust
km/h
Spd
kts
Gust
kts
17/11:30pm -3.8 -8.4 -4.1 98 -0.1 NNE 11 15 6 8 1027.1 1028.6 0.0
17/11:00pm -3.6 -7.8 -3.9 98 -0.1 N 9 11 5 6 1027.0 1028.5 0.0
17/10:30pm -3.5 -7.7 -3.8 98 -0.1 NNE 9 11 5 6 1027.0 1028.5 0.0
17/10:00pm -3.0 -7.5 -3.3 98 0.0 NE 11 15 6 8 1026.9 1028.3 0.0
17/09:30pm -3.4 -8.7 -3.7 98 -0.1 NNE 15 19 8 10 1026.9 1028.3 0.0
17/09:00pm -2.4 -7.2 -2.7 98 0.0 NNE 13 15 7 8 1026.7 1028.1 0.0
17/08:30pm -2.0 -6.4 -2.3 98 0.0 NE 11 17 6 9 1026.5 1027.9 0.0
17/08:00pm -2.1 -6.9 -2.4 98 0.0 NE 13 17 7 9 1026.3 1027.7 0.0
17/07:30pm -2.1 -6.9 -2.4 98 0.0 NE 13 17 7 9 1025.8 1027.2 0.0
17/07:00pm -1.6 -6.3 -1.9 98 0.0 NE 13 15 7 8 1025.7 1027.1 0.0
17/06:30pm -1.6 -6.3 -1.9 98 0.0 ENE 13 19 7 10 1025.4 1026.8 0.0
17/06:00pm -1.7 -5.7 -2.0 98 0.0 NE 9 13 5 7 1025.2 1026.6 0.0
17/05:30pm -1.5 -6.2 -1.8 98 0.0 ENE 13 17 7 9 1025.0 1026.3 0.0
17/05:00pm -1.6 -6.3 -1.9 98 0.0 NE 13 19 7 10 1024.8 1026.2 0.0
17/04:30pm -2.0 -7.5 -2.3 98 0.0 NE 17 20 9 11 1024.3 1025.7 0.0
17/04:00pm -1.7 -7.2 -2.0 98 0.0 NE 17 22 9 12 1024.3 1025.7 0.0
17/03:30pm -1.6 -7.5 -1.9 98 0.0 NE 19 24 10 13 1024.2 1025.5 0.0
17/03:00pm -1.5 -6.2 -1.8 98 0.0 ENE 13 22 7 12 1024.2 1025.5 0.0
17/02:30pm -1.6 -7.5 -1.9 98 0.0 ENE 19 24 10 13 1024.1 1025.4 0.0
17/02:00pm -1.9 -6.7 -2.2 98 0.0 ENE 13 19 7 10 1024.0 1025.3 0.0
17/01:30pm -1.9 -7.4 -2.2 98 0.0 ENE 17 22 9 12 1023.7 1025.0 0.0
17/01:00pm -2.1 -8.0 -2.4 98 0.0 NE 19 22 10 12 1023.6 1024.9 0.0
17/12:30pm -2.3 -8.2 -2.6 98 0.0 ENE 19 24 10 13 1023.5 1024.8 0.0
17/12:00pm -2.2 -7.4 -2.5 98 0.0 ENE 15 24 8 13 1023.5 1024.8 0.0
17/11:30am -2.2 -7.0 -2.5 98 0.0 ENE 13 20 7 11 1023.5 1024.8 0.0
17/11:00am -2.8 -7.7 -3.1 98 0.0 E 13 24 7 13 1023.4 1024.6 0.0
17/10:30am -3.4 -8.0 -3.8 97 0.0 ENE 11 15 6 8 1023.1 1024.4 0.0
17/10:00am -3.9 -8.5 -4.3 97 0.0 ENE 11 13 6 7 1023.0 1024.3 0.0
17/09:30am -4.4 -8.3 -4.8 97 -0.1 ENE 7 11 4 6 1022.9 1024.1 0.0
17/09:00am -5.0 -9.4 -5.4 97 -0.1 ENE 9 13 5 7 1022.8 1024.0 35.2
17/08:30am -5.8 -10.2 -6.2 97 -0.1 ENE 9 13 5 7 1022.4 1023.6 35.2
17/08:00am -6.0 -10.8 -6.4 97 -0.1 ENE 11 15 6 8 1022.0 1023.3 35.2
17/07:30am -6.6 -11.9 -7.0 97 -0.1 ENE 13 17 7 9 1021.3 1022.5 35.2
17/07:00am -7.0 -11.9 -7.4 97 -0.1 ENE 11 13 6 7 1020.8 1022.0 35.2
17/06:30am -7.3 -12.3 -7.7 97 -0.2 ENE 11 17 6 9 1020.5 1021.6 35.2
17/06:00am -8.0 -13.0 -8.4 97 -0.2 ENE 11 13 6 7 1019.9 1021.0 35.2
17/05:30am -8.0 -12.6 -8.4 97 -0.2 E 9 17 5 9 1019.9 1021.0 35.2
17/05:00am -7.4 -12.0 -7.8 97 -0.2 ESE 9 15 5 8 1019.5 1020.6 35.2
17/04:30am -7.1 -12.0 -7.5 97 -0.2 ESE 11 17 6 9 1019.5 1020.6 35.2
17/04:00am -6.9 -11.4 -7.3 97 -0.1 ESE 9 15 5 8 1019.4 1020.5 35.2
17/03:30am -7.0 -11.6 -7.4 97 -0.1 ESE 9 13 5 7 1019.3 1020.3 35.2
17/03:00am -6.7 -11.2 -7.1 97 -0.1 ESE 9 19 5 10 1019.4 1020.5 35.2
17/02:30am -6.7 -11.6 -7.1 97 -0.1 E 11 17 6 9 1019.4 1020.5 35.2
17/02:00am -6.0 -11.2 -6.4 97 -0.1 ESE 13 19 7 10 1019.3 1020.3 35.2
17/01:30am -5.8 -11.4 -6.2 97 -0.1 ESE 15 19 8 10 1019.4 1020.5 35.2
17/01:00am -5.6 -10.4 -6.0 97 -0.1 ESE 11 19 6 10 1019.5 1020.6 35.2
17/12:30am -5.5 -9.9 -5.9 97 -0.1 ESE 9 15 5 8 1019.7 1020.8 35.2
17/12:00am -5.5 -9.5 -5.9 97 -0.1 SE 7 15 4 8 1019.7 1020.8 35.2
 
Date/Time
EST
Temp
°C
App
Temp
°C
Dew
Point
°C
Rel
Hum
%
Delta-T
°C
Wind Press
QNH
hPa
Press
MSL
hPa
Rain since
9am
mm
Dir  Spd
km/h
Gust
km/h
Spd
kts
Gust
kts
16/11:30pm -5.8 -11.0 -6.2 97 -0.1 SSE 13 20 7 11 1019.5 1020.6 35.2
16/11:00pm -5.9 -10.3 -6.3 97 -0.1 SE 9 19 5 10 1019.4 1020.5 35.2
16/10:30pm -5.7 -10.9 -6.1 97 -0.1 SE 13 20 7 11 1019.6 1020.7 35.2
16/10:00pm -5.2 -10.0 -5.6 97 -0.1 SE 11 20 6 11 1019.4 1020.5 35.2
16/09:30pm -5.2 -11.5 -5.6 97 -0.1 SSE 19 28 10 15 1019.5 1020.6 35.2
16/09:00pm -4.6 -9.7 -5.0 97 -0.1 SSE 13 20 7 11 1019.4 1020.5 35.2
16/08:30pm -4.4 -9.1 -4.8 97 -0.1 SSE 11 22 6 12 1019.5 1020.6 35.2
16/08:00pm -4.3 -8.6 -4.7 97 -0.1 SE 9 13 5 7 1019.3 1020.3 35.2
16/07:30pm -4.1 -8.4 -4.5 97 0.0 ESE 9 15 5 8 1019.1 1020.2 35.2
16/07:00pm -3.8 -8.0 -4.2 97 0.0 SE 9 15 5 8 1018.7 1019.7 35.2
16/06:30pm -3.5 -7.3 -3.8 98 -0.1 SE 7 11 4 6 1018.3 1019.3 35.0
16/06:00pm -3.0 -7.1 -3.3 98 0.0 E 9 11 5 6 1017.9 1018.9 35.0
16/05:30pm -2.1 -5.2 -2.4 98 0.0 ESE 4 9 2 5 1017.6 1018.6 34.8
16/05:00pm 0.0 -3.2 -0.3 98 0.1 W 6 13 3 7 1017.4 1018.4 34.8
16/04:30pm 0.0 -4.5 -0.3 98 0.1 W 13 20 7 11 1017.2 1018.2 34.6
16/04:00pm 0.1 -5.7 -0.2 98 0.1 W 20 30 11 16 1017.0 1017.9 33.4
16/03:30pm 0.1 -6.5 -0.2 98 0.1 WNW 24 37 13 20 1016.0 1016.9 32.0
16/03:00pm 0.2 -8.4 -0.1 98 0.1 W 35 48 19 26 1015.9 1016.8 31.2
16/02:51pm 0.4 -7.3 0.1 98 0.1 W 30 48 16 26 1015.9 1016.8 30.2
16/02:30pm 0.5 -7.7 0.2 98 0.1 W 33 48 18 26 1016.1 1017.0 28.0
16/02:19pm 0.4 -6.9 0.1 98 0.1 W 28 46 15 25 1015.9 1016.8 27.8
16/02:00pm 0.9 -7.1 0.6 98 0.1 W 32 48 17 26 1016.4 1017.3 26.8
16/01:41pm 0.9 -6.3 0.6 98 0.1 W 28 46 15 25 1016.2 1017.2 25.8
16/01:30pm 1.0 -6.6 0.7 98 0.1 W 30 44 16 24 1016.4 1017.3 25.2
16/01:00pm 1.1 -7.4 0.8 98 0.1 W 35 56 19 30 1016.4 1017.3 23.0
16/12:34pm 1.1 -7.8 0.8 98 0.1 W 37 59 20 32 1016.6 1017.5 21.0
16/12:30pm 1.0 -7.5 0.7 98 0.1 W 35 48 19 26 1016.6 1017.5 20.8
16/12:03pm 1.1 -6.5 0.8 98 0.1 WSW 30 52 16 28 1017.0 1017.9 18.4
16/12:00pm 1.1 -5.7 0.8 98 0.1 WSW 26 39 14 21 1017.2 1018.2 18.2
16/11:44am 1.2 -6.9 0.9 98 0.1 W 33 54 18 29 1017.2 1018.2 16.6
16/11:30am 1.0 -6.2 0.7 98 0.1 W 28 44 15 24 1017.7 1018.7 15.4
16/11:00am 1.4 -8.6 1.1 98 0.1 W 43 67 23 36 1018.2 1019.2 12.6
16/10:30am 1.9 -6.9 1.6 98 0.1 W 37 57 20 31 1018.0 1019.1 8.4
16/10:15am 2.3 -4.7 2.0 98 0.1 W 28 50 15 27 1017.9 1018.9 6.8
16/10:00am 2.7 -3.5 2.4 98 0.1 W 24 37 13 20 1018.0 1019.1 6.6
16/09:38am 2.5 -5.2 2.2 98 0.1 W 32 54 17 29 1018.7 1019.7 5.8
16/09:30am 2.8 -4.9 2.5 98 0.1 W 32 44 17 24 1018.3 1019.3 4.2
16/09:00am 2.9 -4.7 2.6 98 0.1 W 32 57 17 31 1018.4 1019.4 3.8
16/08:54am 3.1 -4.5 2.8 98 0.1 W 32 57 17 31 1017.9 1018.9 3.6
16/08:30am 3.0 -5.6 2.6 97 0.2 W 37 54 20 29 1017.8 1018.8 3.4
16/08:00am 3.4 -5.1 1.0 84 1.1 W 35 46 19 25 1017.4 1018.4 3.0
16/07:30am 3.3 -7.8 -0.3 77 1.5 W 48 61 26 33 1016.8 1017.8 3.0
16/07:00am 3.8 -5.9 0.3 78 1.5 WNW 41 56 22 30 1016.4 1017.3 3.0
16/06:43am 4.0 -6.2 1.2 82 1.2 W 44 59 24 32 1016.8 1017.8 3.0
16/06:30am 4.8 -7.7 1.1 77 1.6 WNW 56 67 30 36 1015.6 1016.5 3.0

Latest Capital City Observations: Canberra | Sydney | Melbourne | Brisbane | Adelaide | Perth | Hobart | Darwin

Other formats

Comma delimited format used in spreadsheet applications
http://www.bom.gov.au/fwo/IDN60903/IDN60903.95909.axf

JavaScript Object Notation format (JSON) in row-major order
http://www.bom.gov.au/fwo/IDN60903/IDN60903.95909.json

Data quality

Most of these data are generated automatically and are frequently updated. Quality checks on data are not normally performed. It is possible for incorrect values to appear. Refer to information at About Latest Weather Observations and please check the disclaimer before using these data.